Terminal Aerodrome Forecast
Issued by NWS Jacksonville, FL

Home | Current Version | Previous Version | Text Only | Print | Product List | Glossary On
Versions: 1 2 3 4 5 6 7 8 9 10 11 12 13 14 15 16 17 18 19
000
FTUS42 KJAX 042326
TAFGNV
TAF
KGNV 042326Z 0500/0524 VRB06KT P6SM VCSH SCT040 BKN250
     FM050300 00000KT P6SM SCT040 BKN250
     FM050900 00000KT 4SM BR SCT250
     FM051330 04005KT P6SM VCSH SCT020 BKN040
     FM051800 05007KT P6SM VCTS BKN040CB BKN250=

USA.gov is the U.S. government's official web portal to all federal, state and local government web resources and services.